sensor_id;sensor_type;location;lat;lon;timestamp;P1;durP1;ratioP1;P2;durP2;ratioP2
23730;SDS011;12046;44.702;10.622;2023-06-14T00:01:50;2.40;;;1.27;;
23730;SDS011;12046;44.702;10.622;2023-06-14T00:04:16;4.22;;;1.40;;
23730;SDS011;12046;44.702;10.622;2023-06-14T00:06:42;1.70;;;1.58;;
23730;SDS011;12046;44.702;10.622;2023-06-14T00:09:10;5.55;;;2.03;;
23730;SDS011;12046;44.702;10.622;2023-06-14T00:11:40;2.90;;;1.65;;
23730;SDS011;12046;44.702;10.622;2023-06-14T00:14:06;4.13;;;2.33;;
23730;SDS011;12046;44.702;10.622;2023-06-14T00:16:32;2.30;;;2.10;;
23730;SDS011;12046;44.702;10.622;2023-06-14T00:19:00;3.60;;;1.80;;
23730;SDS011;12046;44.702;10.622;2023-06-14T00:21:30;1.83;;;1.65;;
23730;SDS011;12046;44.702;10.622;2023-06-14T00:23:57;2.25;;;1.77;;
23730;SDS011;12046;44.702;10.622;2023-06-14T00:26:23;2.13;;;1.98;;
23730;SDS011;12046;44.702;10.622;2023-06-14T00:28:50;2.00;;;1.50;;
23730;SDS011;12046;44.702;10.622;2023-06-14T00:31:17;1.63;;;1.50;;
23730;SDS011;12046;44.702;10.622;2023-06-14T00:33:42;2.75;;;1.65;;
23730;SDS011;12046;44.702;10.622;2023-06-14T00:36:08;4.70;;;1.30;;
23730;SDS011;12046;44.702;10.622;2023-06-14T00:38:34;3.38;;;1.63;;
23730;SDS011;12046;44.702;10.622;2023-06-14T00:41:00;3.60;;;1.50;;
23730;SDS011;12046;44.702;10.622;2023-06-14T00:43:25;2.65;;;1.80;;
23730;SDS011;12046;44.702;10.622;2023-06-14T00:45:51;5.88;;;1.65;;
23730;SDS011;12046;44.702;10.622;2023-06-14T00:48:17;3.08;;;1.73;;
23730;SDS011;12046;44.702;10.622;2023-06-14T00:50:44;3.10;;;1.60;;
23730;SDS011;12046;44.702;10.622;2023-06-14T00:53:14;3.88;;;1.63;;
23730;SDS011;12046;44.702;10.622;2023-06-14T00:55:40;2.78;;;1.48;;
23730;SDS011;12046;44.702;10.622;2023-06-14T00:58:06;3.00;;;1.70;;
23730;SDS011;12046;44.702;10.622;2023-06-14T01:00:32;4.45;;;1.40;;
23730;SDS011;12046;44.702;10.622;2023-06-14T01:02:58;5.50;;;1.35;;
23730;SDS011;12046;44.702;10.622;2023-06-14T01:05:24;2.88;;;1.30;;
23730;SDS011;12046;44.702;10.622;2023-06-14T01:08:05;4.53;;;1.20;;
23730;SDS011;12046;44.702;10.622;2023-06-14T01:13:34;2.78;;;1.60;;
23730;SDS011;12046;44.702;10.622;2023-06-14T01:16:08;2.70;;;1.63;;
23730;SDS011;12046;44.702;10.622;2023-06-14T01:18:35;5.35;;;1.50;;
23730;SDS011;12046;44.702;10.622;2023-06-14T01:21:01;3.63;;;1.63;;
23730;SDS011;12046;44.702;10.622;2023-06-14T01:23:31;2.58;;;1.40;;
23730;SDS011;12046;44.702;10.622;2023-06-14T01:26:00;10.85;;;1.60;;
23730;SDS011;12046;44.702;10.622;2023-06-14T01:28:28;2.63;;;1.63;;
23730;SDS011;12046;44.702;10.622;2023-06-14T01:30:58;1.52;;;1.38;;
23730;SDS011;12046;44.702;10.622;2023-06-14T01:33:28;3.67;;;1.73;;
23730;SDS011;12046;44.702;10.622;2023-06-14T01:35:56;4.32;;;1.80;;
23730;SDS011;12046;44.702;10.622;2023-06-14T01:38:22;6.20;;;1.77;;
23730;SDS011;12046;44.702;10.622;2023-06-14T01:40:50;4.82;;;2.20;;
23730;SDS011;12046;44.702;10.622;2023-06-14T01:43:18;4.63;;;1.80;;
23730;SDS011;12046;44.702;10.622;2023-06-14T01:45:45;2.50;;;1.42;;
23730;SDS011;12046;44.702;10.622;2023-06-14T01:48:12;3.60;;;1.88;;
23730;SDS011;12046;44.702;10.622;2023-06-14T01:50:38;2.13;;;1.50;;
23730;SDS011;12046;44.702;10.622;2023-06-14T01:53:08;4.93;;;1.80;;
23730;SDS011;12046;44.702;10.622;2023-06-14T01:55:34;2.30;;;1.70;;
23730;SDS011;12046;44.702;10.622;2023-06-14T01:58:05;2.45;;;1.70;;
23730;SDS011;12046;44.702;10.622;2023-06-14T02:00:31;4.32;;;1.90;;
23730;SDS011;12046;44.702;10.622;2023-06-14T02:02:57;3.78;;;1.83;;
23730;SDS011;12046;44.702;10.622;2023-06-14T02:05:23;5.30;;;2.10;;
23730;SDS011;12046;44.702;10.622;2023-06-14T02:07:49;1.67;;;1.58;;
23730;SDS011;12046;44.702;10.622;2023-06-14T02:10:15;3.33;;;1.45;;
23730;SDS011;12046;44.702;10.622;2023-06-14T02:12:43;3.22;;;1.50;;
23730;SDS011;12046;44.702;10.622;2023-06-14T02:15:09;1.55;;;1.42;;
23730;SDS011;12046;44.702;10.622;2023-06-14T02:17:45;1.87;;;1.43;;
23730;SDS011;12046;44.702;10.622;2023-06-14T02:20:20;5.10;;;1.38;;
23730;SDS011;12046;44.702;10.622;2023-06-14T02:22:45;1.23;;;1.10;;
23730;SDS011;12046;44.702;10.622;2023-06-14T02:25:11;3.00;;;1.40;;
23730;SDS011;12046;44.702;10.622;2023-06-14T02:27:37;1.75;;;1.55;;
23730;SDS011;12046;44.702;10.622;2023-06-14T02:30:03;2.42;;;1.27;;
23730;SDS011;12046;44.702;10.622;2023-06-14T02:32:29;2.20;;;1.40;;
23730;SDS011;12046;44.702;10.622;2023-06-14T02:34:55;4.25;;;1.35;;
23730;SDS011;12046;44.702;10.622;2023-06-14T02:37:22;1.33;;;1.23;;
23730;SDS011;12046;44.702;10.622;2023-06-14T02:39:48;2.08;;;1.10;;
23730;SDS011;12046;44.702;10.622;2023-06-14T02:42:13;2.65;;;1.10;;
23730;SDS011;12046;44.702;10.622;2023-06-14T02:44:39;2.65;;;1.10;;
23730;SDS011;12046;44.702;10.622;2023-06-14T02:47:05;3.05;;;1.20;;
23730;SDS011;12046;44.702;10.622;2023-06-14T02:49:31;3.80;;;1.10;;
23730;SDS011;12046;44.702;10.622;2023-06-14T02:51:56;3.53;;;1.10;;
23730;SDS011;12046;44.702;10.622;2023-06-14T02:54:22;4.35;;;1.20;;
23730;SDS011;12046;44.702;10.622;2023-06-14T02:56:48;2.95;;;1.27;;
23730;SDS011;12046;44.702;10.622;2023-06-14T02:59:14;3.05;;;1.42;;
23730;SDS011;12046;44.702;10.622;2023-06-14T03:01:40;2.97;;;1.05;;
23730;SDS011;12046;44.702;10.622;2023-06-14T03:04:06;3.22;;;1.45;;
23730;SDS011;12046;44.702;10.622;2023-06-14T03:06:33;1.55;;;1.30;;
23730;SDS011;12046;44.702;10.622;2023-06-14T03:09:02;2.60;;;1.20;;
23730;SDS011;12046;44.702;10.622;2023-06-14T03:11:30;3.20;;;1.23;;
23730;SDS011;12046;44.702;10.622;2023-06-14T03:13:56;5.03;;;0.98;;
23730;SDS011;12046;44.702;10.622;2023-06-14T03:16:22;2.30;;;1.42;;
23730;SDS011;12046;44.702;10.622;2023-06-14T03:18:52;2.53;;;1.20;;
23730;SDS011;12046;44.702;10.622;2023-06-14T03:21:18;1.17;;;0.98;;
23730;SDS011;12046;44.702;10.622;2023-06-14T03:23:45;2.25;;;1.60;;
23730;SDS011;12046;44.702;10.622;2023-06-14T03:26:11;5.47;;;1.30;;
23730;SDS011;12046;44.702;10.622;2023-06-14T03:28:39;6.18;;;1.55;;
23730;SDS011;12046;44.702;10.622;2023-06-14T03:31:05;1.90;;;1.40;;
23730;SDS011;12046;44.702;10.622;2023-06-14T03:33:31;5.68;;;1.52;;
23730;SDS011;12046;44.702;10.622;2023-06-14T03:35:57;5.03;;;1.48;;
23730;SDS011;12046;44.702;10.622;2023-06-14T03:38:22;2.22;;;1.50;;
23730;SDS011;12046;44.702;10.622;2023-06-14T03:40:48;3.17;;;1.42;;
23730;SDS011;12046;44.702;10.622;2023-06-14T03:43:14;1.98;;;1.13;;
23730;SDS011;12046;44.702;10.622;2023-06-14T03:45:40;1.60;;;1.10;;
23730;SDS011;12046;44.702;10.622;2023-06-14T03:48:06;1.73;;;1.35;;
23730;SDS011;12046;44.702;10.622;2023-06-14T03:50:33;4.95;;;1.17;;
23730;SDS011;12046;44.702;10.622;2023-06-14T03:52:59;2.13;;;1.20;;
23730;SDS011;12046;44.702;10.622;2023-06-14T03:55:26;2.72;;;1.00;;
23730;SDS011;12046;44.702;10.622;2023-06-14T03:57:52;3.47;;;1.13;;
23730;SDS011;12046;44.702;10.622;2023-06-14T04:00:18;2.90;;;1.00;;
23730;SDS011;12046;44.702;10.622;2023-06-14T04:02:44;1.58;;;1.23;;
23730;SDS011;12046;44.702;10.622;2023-06-14T04:05:10;1.42;;;1.35;;
23730;SDS011;12046;44.702;10.622;2023-06-14T04:07:36;3.30;;;1.00;;
23730;SDS011;12046;44.702;10.622;2023-06-14T04:10:06;2.95;;;1.35;;
23730;SDS011;12046;44.702;10.622;2023-06-14T04:12:33;4.88;;;1.33;;
23730;SDS011;12046;44.702;10.622;2023-06-14T04:14:59;4.53;;;1.30;;
23730;SDS011;12046;44.702;10.622;2023-06-14T04:17:26;2.90;;;1.33;;
23730;SDS011;12046;44.702;10.622;2023-06-14T04:19:51;2.40;;;1.10;;
23730;SDS011;12046;44.702;10.622;2023-06-14T04:22:17;3.28;;;1.30;;
23730;SDS011;12046;44.702;10.622;2023-06-14T04:24:43;4.72;;;1.58;;
23730;SDS011;12046;44.702;10.622;2023-06-14T04:27:09;4.07;;;1.33;;
23730;SDS011;12046;44.702;10.622;2023-06-14T04:29:36;1.50;;;1.10;;
23730;SDS011;12046;44.702;10.622;2023-06-14T04:32:02;5.60;;;1.70;;
23730;SDS011;12046;44.702;10.622;2023-06-14T04:34:28;2.63;;;1.40;;
23730;SDS011;12046;44.702;10.622;2023-06-14T04:36:59;4.15;;;1.30;;
23730;SDS011;12046;44.702;10.622;2023-06-14T04:39:26;2.58;;;1.65;;
23730;SDS011;12046;44.702;10.622;2023-06-14T04:41:53;2.53;;;1.38;;
23730;SDS011;12046;44.702;10.622;2023-06-14T04:44:22;2.88;;;1.60;;
23730;SDS011;12046;44.702;10.622;2023-06-14T04:46:55;2.00;;;1.80;;
23730;SDS011;12046;44.702;10.622;2023-06-14T04:49:23;3.22;;;1.25;;
23730;SDS011;12046;44.702;10.622;2023-06-14T04:51:51;1.90;;;1.50;;
23730;SDS011;12046;44.702;10.622;2023-06-14T04:54:22;1.63;;;1.27;;
23730;SDS011;12046;44.702;10.622;2023-06-14T04:56:50;4.97;;;1.50;;
23730;SDS011;12046;44.702;10.622;2023-06-14T04:59:16;3.20;;;1.60;;
23730;SDS011;12046;44.702;10.622;2023-06-14T05:01:42;3.50;;;1.40;;
23730;SDS011;12046;44.702;10.622;2023-06-14T05:04:16;4.47;;;1.60;;
23730;SDS011;12046;44.702;10.622;2023-06-14T05:06:43;3.22;;;1.33;;
23730;SDS011;12046;44.702;10.622;2023-06-14T05:09:13;2.05;;;1.70;;
23730;SDS011;12046;44.702;10.622;2023-06-14T05:11:40;4.75;;;1.50;;
23730;SDS011;12046;44.702;10.622;2023-06-14T05:14:09;4.53;;;1.60;;
23730;SDS011;12046;44.702;10.622;2023-06-14T05:16:36;1.85;;;1.30;;
23730;SDS011;12046;44.702;10.622;2023-06-14T05:19:02;5.25;;;1.60;;
23730;SDS011;12046;44.702;10.622;2023-06-14T05:21:29;5.43;;;2.10;;
23730;SDS011;12046;44.702;10.622;2023-06-14T05:23:55;4.30;;;1.80;;
23730;SDS011;12046;44.702;10.622;2023-06-14T05:26:21;6.15;;;1.95;;
23730;SDS011;12046;44.702;10.622;2023-06-14T05:28:50;5.10;;;1.70;;
23730;SDS011;12046;44.702;10.622;2023-06-14T05:31:17;3.33;;;1.63;;
23730;SDS011;12046;44.702;10.622;2023-06-14T05:33:44;2.08;;;1.60;;
23730;SDS011;12046;44.702;10.622;2023-06-14T05:36:09;4.63;;;1.45;;
23730;SDS011;12046;44.702;10.622;2023-06-14T05:38:35;1.73;;;1.30;;
23730;SDS011;12046;44.702;10.622;2023-06-14T05:41:01;2.67;;;1.80;;
23730;SDS011;12046;44.702;10.622;2023-06-14T05:43:27;1.70;;;1.40;;
23730;SDS011;12046;44.702;10.622;2023-06-14T05:45:53;2.50;;;1.90;;
23730;SDS011;12046;44.702;10.622;2023-06-14T05:48:19;2.20;;;1.60;;
23730;SDS011;12046;44.702;10.622;2023-06-14T05:50:45;3.38;;;2.45;;
23730;SDS011;12046;44.702;10.622;2023-06-14T05:53:11;2.47;;;1.92;;
23730;SDS011;12046;44.702;10.622;2023-06-14T05:55:37;2.15;;;1.88;;
23730;SDS011;12046;44.702;10.622;2023-06-14T05:58:03;3.08;;;1.77;;
23730;SDS011;12046;44.702;10.622;2023-06-14T06:00:29;5.45;;;2.00;;
23730;SDS011;12046;44.702;10.622;2023-06-14T06:02:55;5.25;;;2.33;;
23730;SDS011;12046;44.702;10.622;2023-06-14T06:05:23;2.60;;;1.80;;
23730;SDS011;12046;44.702;10.622;2023-06-14T06:07:48;2.97;;;1.90;;
23730;SDS011;12046;44.702;10.622;2023-06-14T06:10:14;4.55;;;1.83;;
23730;SDS011;12046;44.702;10.622;2023-06-14T06:12:43;2.83;;;2.38;;
23730;SDS011;12046;44.702;10.622;2023-06-14T06:15:09;4.53;;;2.28;;
23730;SDS011;12046;44.702;10.622;2023-06-14T06:17:38;2.67;;;2.47;;
23730;SDS011;12046;44.702;10.622;2023-06-14T06:20:04;3.08;;;2.10;;
23730;SDS011;12046;44.702;10.622;2023-06-14T06:22:33;2.58;;;2.17;;
23730;SDS011;12046;44.702;10.622;2023-06-14T06:24:59;2.80;;;2.50;;
23730;SDS011;12046;44.702;10.622;2023-06-14T06:27:25;4.45;;;2.30;;
23730;SDS011;12046;44.702;10.622;2023-06-14T06:29:51;3.95;;;3.53;;
23730;SDS011;12046;44.702;10.622;2023-06-14T06:32:17;3.63;;;3.03;;
23730;SDS011;12046;44.702;10.622;2023-06-14T06:34:43;6.13;;;3.80;;
23730;SDS011;12046;44.702;10.622;2023-06-14T06:37:08;3.65;;;3.20;;
23730;SDS011;12046;44.702;10.622;2023-06-14T06:39:34;3.78;;;2.80;;
23730;SDS011;12046;44.702;10.622;2023-06-14T06:42:00;4.05;;;2.95;;
23730;SDS011;12046;44.702;10.622;2023-06-14T06:44:26;5.63;;;2.30;;
23730;SDS011;12046;44.702;10.622;2023-06-14T06:46:52;5.90;;;3.25;;
23730;SDS011;12046;44.702;10.622;2023-06-14T06:49:18;3.60;;;2.95;;
23730;SDS011;12046;44.702;10.622;2023-06-14T06:51:53;4.05;;;3.35;;
23730;SDS011;12046;44.702;10.622;2023-06-14T06:54:25;4.00;;;3.08;;
23730;SDS011;12046;44.702;10.622;2023-06-14T06:56:51;4.85;;;3.03;;
23730;SDS011;12046;44.702;10.622;2023-06-14T06:59:17;4.57;;;3.25;;
23730;SDS011;12046;44.702;10.622;2023-06-14T07:01:42;4.35;;;2.80;;
23730;SDS011;12046;44.702;10.622;2023-06-14T07:04:08;4.97;;;4.05;;
23730;SDS011;12046;44.702;10.622;2023-06-14T07:06:34;6.13;;;3.58;;
23730;SDS011;12046;44.702;10.622;2023-06-14T07:09:00;7.20;;;5.70;;
23730;SDS011;12046;44.702;10.622;2023-06-14T07:11:26;10.38;;;6.63;;
23730;SDS011;12046;44.702;10.622;2023-06-14T07:13:52;8.75;;;7.85;;
23730;SDS011;12046;44.702;10.622;2023-06-14T07:16:18;9.50;;;6.93;;
23730;SDS011;12046;44.702;10.622;2023-06-14T07:18:44;6.30;;;5.50;;
23730;SDS011;12046;44.702;10.622;2023-06-14T07:21:10;7.10;;;6.50;;
23730;SDS011;12046;44.702;10.622;2023-06-14T07:23:35;7.90;;;6.38;;
23730;SDS011;12046;44.702;10.622;2023-06-14T07:26:01;9.73;;;8.27;;
23730;SDS011;12046;44.702;10.622;2023-06-14T07:28:28;6.93;;;6.30;;
23730;SDS011;12046;44.702;10.622;2023-06-14T07:30:53;6.82;;;6.13;;
23730;SDS011;12046;44.702;10.622;2023-06-14T07:33:19;8.32;;;6.47;;
23730;SDS011;12046;44.702;10.622;2023-06-14T07:35:45;9.70;;;7.72;;
23730;SDS011;12046;44.702;10.622;2023-06-14T07:38:13;11.13;;;7.10;;
23730;SDS011;12046;44.702;10.622;2023-06-14T07:40:39;9.75;;;7.95;;
23730;SDS011;12046;44.702;10.622;2023-06-14T07:43:04;7.75;;;7.05;;
23730;SDS011;12046;44.702;10.622;2023-06-14T07:45:30;7.22;;;6.60;;
23730;SDS011;12046;44.702;10.622;2023-06-14T07:47:56;8.88;;;7.55;;
23730;SDS011;12046;44.702;10.622;2023-06-14T07:50:22;9.68;;;7.35;;
23730;SDS011;12046;44.702;10.622;2023-06-14T07:52:48;7.60;;;6.90;;
23730;SDS011;12046;44.702;10.622;2023-06-14T07:55:14;8.20;;;7.47;;
23730;SDS011;12046;44.702;10.622;2023-06-14T07:57:40;7.88;;;7.10;;
23730;SDS011;12046;44.702;10.622;2023-06-14T08:00:06;8.07;;;5.35;;
23730;SDS011;12046;44.702;10.622;2023-06-14T08:02:32;5.47;;;4.97;;
23730;SDS011;12046;44.702;10.622;2023-06-14T08:04:58;6.90;;;4.88;;
23730;SDS011;12046;44.702;10.622;2023-06-14T08:07:24;5.88;;;5.30;;
23730;SDS011;12046;44.702;10.622;2023-06-14T08:09:50;6.70;;;5.95;;
23730;SDS011;12046;44.702;10.622;2023-06-14T08:12:16;7.55;;;5.13;;
23730;SDS011;12046;44.702;10.622;2023-06-14T08:14:42;7.45;;;5.68;;
23730;SDS011;12046;44.702;10.622;2023-06-14T08:17:08;9.75;;;6.10;;
23730;SDS011;12046;44.702;10.622;2023-06-14T08:19:34;7.55;;;6.82;;
23730;SDS011;12046;44.702;10.622;2023-06-14T08:22:01;9.88;;;5.85;;
23730;SDS011;12046;44.702;10.622;2023-06-14T08:24:28;7.40;;;6.53;;
23730;SDS011;12046;44.702;10.622;2023-06-14T08:26:54;6.95;;;6.25;;
23730;SDS011;12046;44.702;10.622;2023-06-14T08:29:21;7.70;;;5.90;;
23730;SDS011;12046;44.702;10.622;2023-06-14T08:31:47;8.73;;;6.00;;
23730;SDS011;12046;44.702;10.622;2023-06-14T08:34:13;5.07;;;4.57;;
23730;SDS011;12046;44.702;10.622;2023-06-14T08:36:39;4.78;;;4.15;;
23730;SDS011;12046;44.702;10.622;2023-06-14T08:39:06;7.78;;;4.53;;
23730;SDS011;12046;44.702;10.622;2023-06-14T08:41:34;5.45;;;4.93;;
23730;SDS011;12046;44.702;10.622;2023-06-14T08:44:00;6.10;;;5.22;;
23730;SDS011;12046;44.702;10.622;2023-06-14T08:46:26;7.85;;;5.40;;
23730;SDS011;12046;44.702;10.622;2023-06-14T08:48:53;4.63;;;4.22;;
23730;SDS011;12046;44.702;10.622;2023-06-14T08:51:24;7.30;;;4.15;;
23730;SDS011;12046;44.702;10.622;2023-06-14T08:53:53;4.45;;;4.05;;
23730;SDS011;12046;44.702;10.622;2023-06-14T08:56:24;5.00;;;3.85;;
23730;SDS011;12046;44.702;10.622;2023-06-14T08:58:51;6.88;;;3.90;;
23730;SDS011;12046;44.702;10.622;2023-06-14T09:01:17;4.78;;;4.18;;
23730;SDS011;12046;44.702;10.622;2023-06-14T09:03:44;4.30;;;3.90;;
23730;SDS011;12046;44.702;10.622;2023-06-14T09:06:10;4.35;;;4.00;;
23730;SDS011;12046;44.702;10.622;2023-06-14T09:08:41;4.00;;;3.70;;
23730;SDS011;12046;44.702;10.622;2023-06-14T09:11:12;4.10;;;3.80;;
23730;SDS011;12046;44.702;10.622;2023-06-14T09:13:39;5.25;;;4.32;;
23730;SDS011;12046;44.702;10.622;2023-06-14T09:16:06;6.88;;;4.40;;
23730;SDS011;12046;44.702;10.622;2023-06-14T09:18:34;8.30;;;6.15;;
23730;SDS011;12046;44.702;10.622;2023-06-14T09:21:00;6.47;;;4.93;;
23730;SDS011;12046;44.702;10.622;2023-06-14T09:23:26;5.38;;;4.88;;
23730;SDS011;12046;44.702;10.622;2023-06-14T09:25:52;7.07;;;5.22;;
23730;SDS011;12046;44.702;10.622;2023-06-14T09:28:17;8.60;;;5.82;;
23730;SDS011;12046;44.702;10.622;2023-06-14T09:30:45;7.32;;;5.68;;
23730;SDS011;12046;44.702;10.622;2023-06-14T09:33:11;6.57;;;5.90;;
23730;SDS011;12046;44.702;10.622;2023-06-14T09:35:45;6.95;;;6.28;;
23730;SDS011;12046;44.702;10.622;2023-06-14T09:38:11;8.95;;;5.70;;
23730;SDS011;12046;44.702;10.622;2023-06-14T09:40:37;12.90;;;7.95;;
23730;SDS011;12046;44.702;10.622;2023-06-14T09:43:06;6.45;;;5.80;;
23730;SDS011;12046;44.702;10.622;2023-06-14T09:45:36;6.88;;;6.28;;
23730;SDS011;12046;44.702;10.622;2023-06-14T09:48:05;5.90;;;4.03;;
23730;SDS011;12046;44.702;10.622;2023-06-14T09:50:33;3.80;;;3.50;;
23730;SDS011;12046;44.702;10.622;2023-06-14T09:53:05;4.20;;;3.90;;
23730;SDS011;12046;44.702;10.622;2023-06-14T09:55:34;6.53;;;4.13;;
23730;SDS011;12046;44.702;10.622;2023-06-14T09:58:02;3.47;;;3.22;;
23730;SDS011;12046;44.702;10.622;2023-06-14T10:00:31;5.15;;;4.60;;
23730;SDS011;12046;44.702;10.622;2023-06-14T10:03:44;4.55;;;4.15;;
23730;SDS011;12046;44.702;10.622;2023-06-14T10:05:55;4.40;;;3.70;;
23730;SDS011;12046;44.702;10.622;2023-06-14T10:08:27;4.50;;;3.90;;
23730;SDS011;12046;44.702;10.622;2023-06-14T10:10:55;5.05;;;3.90;;
23730;SDS011;12046;44.702;10.622;2023-06-14T10:13:22;13.98;;;12.50;;
23730;SDS011;12046;44.702;10.622;2023-06-14T10:21:22;7.90;;;5.20;;
23730;SDS011;12046;44.702;10.622;2023-06-14T10:24:01;5.63;;;4.82;;
23730;SDS011;12046;44.702;10.622;2023-06-14T10:26:30;4.72;;;4.32;;
23730;SDS011;12046;44.702;10.622;2023-06-14T10:29:00;5.40;;;4.90;;
23730;SDS011;12046;44.702;10.622;2023-06-14T10:31:46;4.38;;;3.70;;
23730;SDS011;12046;44.702;10.622;2023-06-14T10:34:23;6.00;;;4.43;;
23730;SDS011;12046;44.702;10.622;2023-06-14T10:37:00;4.63;;;4.22;;
23730;SDS011;12046;44.702;10.622;2023-06-14T10:39:28;5.10;;;4.10;;
23730;SDS011;12046;44.702;10.622;2023-06-14T10:41:55;4.30;;;3.90;;
23730;SDS011;12046;44.702;10.622;2023-06-14T10:46:49;4.03;;;3.72;;
23730;SDS011;12046;44.702;10.622;2023-06-14T10:52:10;4.95;;;3.58;;
23730;SDS011;12046;44.702;10.622;2023-06-14T10:57:36;5.13;;;3.00;;
23730;SDS011;12046;44.702;10.622;2023-06-14T11:00:07;3.13;;;2.80;;
23730;SDS011;12046;44.702;10.622;2023-06-14T11:05:34;4.43;;;3.30;;
23730;SDS011;12046;44.702;10.622;2023-06-14T11:08:20;3.28;;;2.90;;
23730;SDS011;12046;44.702;10.622;2023-06-14T11:13:38;5.10;;;3.08;;
23730;SDS011;12046;44.702;10.622;2023-06-14T11:16:14;2.70;;;2.50;;
23730;SDS011;12046;44.702;10.622;2023-06-14T11:18:41;3.75;;;3.00;;
23730;SDS011;12046;44.702;10.622;2023-06-14T11:21:09;4.63;;;3.13;;
23730;SDS011;12046;44.702;10.622;2023-06-14T11:23:35;3.70;;;3.40;;
23730;SDS011;12046;44.702;10.622;2023-06-14T11:26:01;3.83;;;3.30;;
23730;SDS011;12046;44.702;10.622;2023-06-14T11:28:39;4.40;;;4.00;;
23730;SDS011;12046;44.702;10.622;2023-06-14T11:31:06;3.80;;;3.50;;
23730;SDS011;12046;44.702;10.622;2023-06-14T11:33:32;5.00;;;4.22;;
23730;SDS011;12046;44.702;10.622;2023-06-14T11:36:01;4.57;;;4.28;;
23730;SDS011;12046;44.702;10.622;2023-06-14T11:38:29;5.95;;;4.60;;
23730;SDS011;12046;44.702;10.622;2023-06-14T11:40:58;4.82;;;4.38;;
23730;SDS011;12046;44.702;10.622;2023-06-14T11:43:25;5.70;;;3.58;;
23730;SDS011;12046;44.702;10.622;2023-06-14T11:45:52;5.07;;;4.65;;
23730;SDS011;12046;44.702;10.622;2023-06-14T11:48:18;5.13;;;4.65;;
23730;SDS011;12046;44.702;10.622;2023-06-14T11:50:49;7.07;;;4.25;;
23730;SDS011;12046;44.702;10.622;2023-06-14T11:53:16;5.53;;;3.83;;
23730;SDS011;12046;44.702;10.622;2023-06-14T11:55:43;3.75;;;3.40;;
23730;SDS011;12046;44.702;10.622;2023-06-14T11:58:11;4.72;;;3.70;;
23730;SDS011;12046;44.702;10.622;2023-06-14T12:00:37;4.97;;;4.10;;
23730;SDS011;12046;44.702;10.622;2023-06-14T12:03:03;4.82;;;3.47;;
23730;SDS011;12046;44.702;10.622;2023-06-14T12:05:29;3.80;;;3.40;;
23730;SDS011;12046;44.702;10.622;2023-06-14T12:07:59;3.83;;;3.45;;
23730;SDS011;12046;44.702;10.622;2023-06-14T12:10:26;3.50;;;3.22;;
23730;SDS011;12046;44.702;10.622;2023-06-14T12:12:56;3.90;;;3.60;;
23730;SDS011;12046;44.702;10.622;2023-06-14T12:15:23;4.28;;;3.90;;
23730;SDS011;12046;44.702;10.622;2023-06-14T12:17:50;4.07;;;3.30;;
23730;SDS011;12046;44.702;10.622;2023-06-14T12:20:17;6.13;;;4.15;;
23730;SDS011;12046;44.702;10.622;2023-06-14T12:22:52;5.57;;;4.00;;
23730;SDS011;12046;44.702;10.622;2023-06-14T12:25:28;5.20;;;3.22;;
23730;SDS011;12046;44.702;10.622;2023-06-14T12:27:59;4.50;;;3.15;;
23730;SDS011;12046;44.702;10.622;2023-06-14T12:30:29;3.90;;;3.60;;
23730;SDS011;12046;44.702;10.622;2023-06-14T12:32:55;3.92;;;3.40;;
23730;SDS011;12046;44.702;10.622;2023-06-14T12:35:20;3.97;;;3.67;;
23730;SDS011;12046;44.702;10.622;2023-06-14T12:37:46;4.35;;;3.55;;
23730;SDS011;12046;44.702;10.622;2023-06-14T12:40:12;4.22;;;3.22;;
23730;SDS011;12046;44.702;10.622;2023-06-14T12:42:39;4.65;;;3.35;;
23730;SDS011;12046;44.702;10.622;2023-06-14T12:45:07;5.90;;;3.88;;
23730;SDS011;12046;44.702;10.622;2023-06-14T12:47:33;4.20;;;3.28;;
23730;SDS011;12046;44.702;10.622;2023-06-14T12:49:58;3.78;;;3.20;;
23730;SDS011;12046;44.702;10.622;2023-06-14T12:52:24;5.30;;;3.50;;
23730;SDS011;12046;44.702;10.622;2023-06-14T12:54:50;8.13;;;4.00;;
23730;SDS011;12046;44.702;10.622;2023-06-14T12:57:16;4.22;;;3.50;;
23730;SDS011;12046;44.702;10.622;2023-06-14T12:59:41;3.90;;;3.60;;
23730;SDS011;12046;44.702;10.622;2023-06-14T13:02:13;6.25;;;3.58;;
23730;SDS011;12046;44.702;10.622;2023-06-14T13:04:40;5.77;;;3.27;;
23730;SDS011;12046;44.702;10.622;2023-06-14T13:07:06;6.10;;;3.65;;
23730;SDS011;12046;44.702;10.622;2023-06-14T13:09:32;4.78;;;3.70;;
23730;SDS011;12046;44.702;10.622;2023-06-14T13:11:58;4.80;;;3.35;;
23730;SDS011;12046;44.702;10.622;2023-06-14T13:14:24;5.78;;;3.80;;
23730;SDS011;12046;44.702;10.622;2023-06-14T13:16:49;4.70;;;4.13;;
23730;SDS011;12046;44.702;10.622;2023-06-14T13:19:16;5.88;;;4.05;;
23730;SDS011;12046;44.702;10.622;2023-06-14T13:21:41;5.10;;;3.88;;
23730;SDS011;12046;44.702;10.622;2023-06-14T13:24:07;4.03;;;3.67;;
23730;SDS011;12046;44.702;10.622;2023-06-14T13:26:33;4.05;;;3.63;;
23730;SDS011;12046;44.702;10.622;2023-06-14T13:29:00;4.63;;;3.72;;
23730;SDS011;12046;44.702;10.622;2023-06-14T13:31:26;4.57;;;4.18;;
23730;SDS011;12046;44.702;10.622;2023-06-14T13:33:52;7.22;;;4.43;;
23730;SDS011;12046;44.702;10.622;2023-06-14T13:36:18;3.45;;;3.15;;
23730;SDS011;12046;44.702;10.622;2023-06-14T13:38:44;5.70;;;3.65;;
23730;SDS011;12046;44.702;10.622;2023-06-14T13:41:10;3.80;;;3.42;;
23730;SDS011;12046;44.702;10.622;2023-06-14T13:43:35;7.13;;;4.03;;
23730;SDS011;12046;44.702;10.622;2023-06-14T13:46:01;4.95;;;3.63;;
23730;SDS011;12046;44.702;10.622;2023-06-14T13:48:27;5.60;;;3.65;;
23730;SDS011;12046;44.702;10.622;2023-06-14T13:50:53;4.22;;;3.33;;
23730;SDS011;12046;44.702;10.622;2023-06-14T13:53:19;6.28;;;3.30;;
23730;SDS011;12046;44.702;10.622;2023-06-14T13:55:44;5.60;;;4.25;;
23730;SDS011;12046;44.702;10.622;2023-06-14T13:58:10;3.58;;;3.28;;
23730;SDS011;12046;44.702;10.622;2023-06-14T14:00:36;5.70;;;3.70;;
23730;SDS011;12046;44.702;10.622;2023-06-14T14:03:06;5.32;;;3.53;;
23730;SDS011;12046;44.702;10.622;2023-06-14T14:05:34;4.20;;;3.55;;
23730;SDS011;12046;44.702;10.622;2023-06-14T14:07:59;3.50;;;3.20;;
23730;SDS011;12046;44.702;10.622;2023-06-14T14:10:25;5.32;;;4.13;;
23730;SDS011;12046;44.702;10.622;2023-06-14T14:12:51;6.97;;;3.13;;
23730;SDS011;12046;44.702;10.622;2023-06-14T14:15:18;6.07;;;3.10;;
23730;SDS011;12046;44.702;10.622;2023-06-14T14:17:44;4.57;;;3.40;;
23730;SDS011;12046;44.702;10.622;2023-06-14T14:20:10;6.78;;;3.40;;
23730;SDS011;12046;44.702;10.622;2023-06-14T14:22:37;4.55;;;3.45;;
23730;SDS011;12046;44.702;10.622;2023-06-14T14:25:03;4.57;;;3.95;;
23730;SDS011;12046;44.702;10.622;2023-06-14T14:27:29;3.97;;;3.40;;
23730;SDS011;12046;44.702;10.622;2023-06-14T14:29:55;4.63;;;3.33;;
23730;SDS011;12046;44.702;10.622;2023-06-14T14:32:21;5.30;;;3.40;;
23730;SDS011;12046;44.702;10.622;2023-06-14T14:34:46;3.40;;;3.10;;
23730;SDS011;12046;44.702;10.622;2023-06-14T14:37:12;5.68;;;3.28;;
23730;SDS011;12046;44.702;10.622;2023-06-14T14:39:40;6.35;;;3.20;;
23730;SDS011;12046;44.702;10.622;2023-06-14T14:42:05;3.83;;;3.40;;
23730;SDS011;12046;44.702;10.622;2023-06-14T14:44:33;3.47;;;3.10;;
23730;SDS011;12046;44.702;10.622;2023-06-14T14:46:58;3.60;;;3.30;;
23730;SDS011;12046;44.702;10.622;2023-06-14T14:49:24;4.03;;;3.10;;
23730;SDS011;12046;44.702;10.622;2023-06-14T14:51:50;3.35;;;3.05;;
23730;SDS011;12046;44.702;10.622;2023-06-14T14:54:16;3.13;;;2.90;;
23730;SDS011;12046;44.702;10.622;2023-06-14T14:56:41;3.03;;;2.83;;